createdAt,value
2023-01-19T00:00:22.147Z,12.2143
2023-01-19T00:01:22.114Z,13.8571
2023-01-19T00:02:22.204Z,13.9286
2023-01-19T00:03:22.170Z,12.7143
2023-01-19T00:04:22.212Z,13.6429
2023-01-19T00:05:22.263Z,13.2143
2023-01-19T00:06:22.325Z,12.9286
2023-01-19T00:07:22.327Z,12.6429
2023-01-19T00:08:22.359Z,12.7143
2023-01-19T00:09:22.393Z,13.1429
2023-01-19T00:10:22.429Z,13
2023-01-19T00:11:22.486Z,12
2023-01-19T00:12:22.519Z,12.5
2023-01-19T00:13:22.543Z,13.1429
2023-01-19T00:14:22.584Z,12
2023-01-19T00:15:22.610Z,12.4286
2023-01-19T00:16:22.749Z,12.7143
2023-01-19T00:17:22.687Z,12.1429
2023-01-19T00:18:22.719Z,12.7143
2023-01-19T00:19:22.752Z,12.4286
2023-01-19T00:20:22.797Z,12.3571
2023-01-19T00:21:22.819Z,12
2023-01-19T00:22:22.853Z,13.3571
2023-01-19T00:23:22.893Z,12.5
2023-01-19T00:24:22.931Z,12.9286
2023-01-19T00:25:22.973Z,12.6429
2023-01-19T00:26:23.058Z,12.4286
2023-01-19T00:27:23.040Z,12.3571
2023-01-19T00:28:23.080Z,12
2023-01-19T00:29:23.129Z,12.5
2023-01-19T00:30:23.159Z,12
2023-01-19T00:31:23.221Z,12.1429
2023-01-19T00:32:23.228Z,12.4286
2023-01-19T00:33:23.262Z,12
2023-01-19T00:34:23.291Z,11.9286
2023-01-19T00:35:23.326Z,11.8571
2023-01-19T00:36:23.358Z,12.8571
2023-01-19T00:37:23.406Z,12.5
2023-01-19T00:38:23.448Z,13
2023-01-19T00:39:23.470Z,12.6429
2023-01-19T00:40:23.515Z,12.7143
2023-01-19T00:41:23.537Z,11.6429
2023-01-19T00:42:23.617Z,12.6429
2023-01-19T00:43:23.604Z,12.3571
2023-01-19T00:44:23.642Z,12.6429
2023-01-19T00:45:23.728Z,12.3571
2023-01-19T00:46:23.711Z,11.6429
2023-01-19T00:47:23.752Z,11.9286
2023-01-19T00:48:23.794Z,12.9286
2023-01-19T00:49:23.827Z,11.9286
2023-01-19T00:50:23.856Z,11.7143
2023-01-19T00:51:23.900Z,11.8571
2023-01-19T00:52:23.941Z,11.4286
2023-01-19T00:53:23.968Z,12.7143
2023-01-19T00:54:24.005Z,11.8571
2023-01-19T00:55:24.082Z,11.6429
2023-01-19T00:56:24.076Z,10.7143
2023-01-19T00:57:24.110Z,11.7143
2023-01-19T00:58:24.138Z,11.3571
2023-01-19T00:59:24.349Z,10.9286
2023-01-19T01:00:24.215Z,11.3571
2023-01-19T01:01:44.988Z,11.5
2023-01-19T01:02:24.533Z,12
2023-01-19T01:03:24.352Z,12.2143
2023-01-19T01:04:24.390Z,11.7143
2023-01-19T01:05:24.386Z,11.6429
2023-01-19T01:06:24.423Z,11.3571
2023-01-19T01:07:24.463Z,11.2143
2023-01-19T01:08:24.500Z,10.1429
2023-01-19T01:09:24.521Z,11.2143
2023-01-19T01:10:24.544Z,11.4286
2023-01-19T01:11:24.586Z,10.5
2023-01-19T01:12:24.636Z,11.2143
2023-01-19T01:13:27.295Z,10.3571
2023-01-19T01:14:24.699Z,11.2143
2023-01-19T01:15:24.721Z,10.9286
2023-01-19T01:16:24.823Z,9.92857
2023-01-19T01:17:24.863Z,10.8571
2023-01-19T01:18:24.822Z,11.1429
2023-01-19T01:19:24.853Z,10.1429
2023-01-19T01:20:24.880Z,10.8571
2023-01-19T01:21:24.923Z,10.6429
2023-01-19T01:22:24.958Z,10.8571
2023-01-19T01:23:24.999Z,9.92857
2023-01-19T01:24:25.030Z,10.3571
2023-01-19T01:25:25.092Z,10.7143
2023-01-19T01:26:27.010Z,10.6429
2023-01-19T01:27:25.132Z,10.7143
2023-01-19T01:28:25.177Z,10.6429
2023-01-19T01:29:25.244Z,10.3571
2023-01-19T01:30:25.233Z,11.1429
2023-01-19T01:31:25.294Z,11.3571
2023-01-19T01:32:25.315Z,10.7143
2023-01-19T01:33:40.790Z,10.8571
2023-01-19T01:34:25.402Z,11.2143
2023-01-19T01:35:25.426Z,11
2023-01-19T01:36:25.464Z,11.1429
2023-01-19T01:37:25.507Z,10.8571
2023-01-19T01:38:25.558Z,10.2143
2023-01-19T01:39:25.589Z,10.8571
2023-01-19T01:40:25.613Z,11.2143
2023-01-19T01:41:25.652Z,10.5
2023-01-19T01:42:25.691Z,11.1429
2023-01-19T01:43:25.722Z,10.4286
2023-01-19T01:44:25.757Z,11.2143
2023-01-19T01:45:25.796Z,10.9286
2023-01-19T01:46:25.838Z,10.1429
2023-01-19T01:47:25.855Z,10.8571
2023-01-19T01:48:25.891Z,10.8571
2023-01-19T01:49:25.919Z,10.4286
2023-01-19T01:50:25.959Z,11.1429
2023-01-19T01:51:25.993Z,10.6429
2023-01-19T01:52:26.076Z,10.9286
2023-01-19T01:53:26.074Z,10.8571
2023-01-19T01:54:26.108Z,11.2143
2023-01-19T01:55:26.149Z,10.8571
2023-01-19T01:56:26.188Z,11
2023-01-19T01:57:26.209Z,10.7143
2023-01-19T01:58:26.249Z,10.3571
2023-01-19T01:59:26.355Z,10.5
2023-01-19T02:00:26.326Z,10.9286
2023-01-19T02:01:26.492Z,10.7143
2023-01-19T02:02:26.386Z,10.6429
2023-01-19T02:03:26.453Z,10.8571
2023-01-19T02:04:26.456Z,10.6429
2023-01-19T02:05:26.558Z,10.2143
2023-01-19T02:06:26.527Z,10
2023-01-19T02:07:26.565Z,10.7143
2023-01-19T02:08:26.627Z,10.4286
2023-01-19T02:09:26.664Z,9.92857
2023-01-19T02:10:26.654Z,10.7143
2023-01-19T02:11:26.687Z,10
2023-01-19T02:12:26.725Z,10.4286
2023-01-19T02:13:26.761Z,10.4286
2023-01-19T02:14:26.806Z,10.1429
2023-01-19T02:15:26.836Z,10.6429
2023-01-19T02:16:26.933Z,10.5
2023-01-19T02:17:26.908Z,10
2023-01-19T02:18:26.964Z,10.1429
2023-01-19T02:19:26.973Z,10.6429
2023-01-19T02:20:27.014Z,11.1429
2023-01-19T02:21:27.058Z,10.4286
2023-01-19T02:22:27.089Z,10.7143
2023-01-19T02:23:27.128Z,10.6429
2023-01-19T02:24:27.163Z,10.2143
2023-01-19T02:25:27.199Z,11.3571
2023-01-19T02:26:27.240Z,10.6429
2023-01-19T02:27:27.255Z,11.1429
2023-01-19T02:28:27.301Z,10.6429
2023-01-19T02:29:27.343Z,10.5
2023-01-19T02:30:27.398Z,10.3571
2023-01-19T02:31:27.407Z,11
2023-01-19T02:32:27.439Z,11
2023-01-19T02:33:27.475Z,10.9286
2023-01-19T02:34:27.511Z,10.3571
2023-01-19T02:35:27.561Z,11
2023-01-19T02:36:27.589Z,11
2023-01-19T02:37:27.622Z,11.3571
2023-01-19T02:38:27.653Z,11
2023-01-19T02:39:27.700Z,11
2023-01-19T02:40:27.722Z,11.4286
2023-01-19T02:41:27.753Z,11.5
2023-01-19T02:42:27.786Z,10.8571
2023-01-19T02:43:27.826Z,10.8571
2023-01-19T02:44:27.855Z,11.1429
2023-01-19T02:45:27.889Z,11.2143
2023-01-19T02:46:27.914Z,11.2143
2023-01-19T02:47:27.944Z,10.8571
2023-01-19T02:48:27.981Z,10.7143
2023-01-19T02:49:28.010Z,10.9286
2023-01-19T02:50:28.062Z,11.1429
2023-01-19T02:51:28.071Z,10.4286
2023-01-19T02:52:28.115Z,11.5
2023-01-19T02:53:28.139Z,11
2023-01-19T02:54:28.176Z,10.7143
2023-01-19T02:55:28.198Z,10.8571
2023-01-19T02:56:28.254Z,10.9286
2023-01-19T02:57:28.280Z,10.6429
2023-01-19T02:58:28.320Z,9.64286
2023-01-19T02:59:28.340Z,10.9286
2023-01-19T03:00:28.376Z,11.4286
2023-01-19T03:01:28.456Z,10.4286
2023-01-19T03:02:28.501Z,11.3571
2023-01-19T03:03:28.508Z,10.9286
2023-01-19T03:04:28.527Z,11.3571
2023-01-19T03:05:28.570Z,11.3571
2023-01-19T03:06:28.598Z,10.3571
2023-01-19T03:07:28.639Z,10.8571
2023-01-19T03:08:28.671Z,10.9286
2023-01-19T03:09:28.707Z,10.9286
2023-01-19T03:10:28.743Z,10.6429
2023-01-19T03:11:28.784Z,11.1429
2023-01-19T03:12:28.829Z,11.3571
2023-01-19T03:13:28.856Z,10.5
2023-01-19T03:14:28.898Z,11
2023-01-19T03:15:28.997Z,10.5
2023-01-19T03:16:28.986Z,11.1429
2023-01-19T03:17:29.000Z,11
2023-01-19T03:18:29.055Z,11.3571
2023-01-19T03:19:29.062Z,10.1429
2023-01-19T03:20:29.151Z,11.3571
2023-01-19T03:21:29.135Z,11
2023-01-19T03:22:29.182Z,10.8571
2023-01-19T03:23:29.209Z,11.1429
2023-01-19T03:24:29.232Z,11.3571
2023-01-19T03:25:29.265Z,10.7143
2023-01-19T03:26:29.296Z,10.7143
2023-01-19T03:27:29.343Z,11.6429
2023-01-19T03:28:29.388Z,11.4286
2023-01-19T03:29:29.427Z,10.5
2023-01-19T03:30:29.439Z,11
2023-01-19T03:31:29.473Z,10.7143
2023-01-19T03:32:29.516Z,11.4286
2023-01-19T03:33:29.539Z,11.1429
2023-01-19T03:34:29.580Z,10.6429
2023-01-19T03:35:29.607Z,10.7143
2023-01-19T03:36:29.648Z,10.9286
2023-01-19T03:37:29.672Z,10.8571
2023-01-19T03:38:29.698Z,11.1429
2023-01-19T03:39:29.764Z,11.2143
2023-01-19T03:40:29.785Z,11.7143
2023-01-19T03:41:29.820Z,11.3571
2023-01-19T03:42:29.849Z,11
2023-01-19T03:43:29.881Z,10.8571
2023-01-19T03:44:29.919Z,11.1429
2023-01-19T03:45:29.945Z,11.8571
2023-01-19T03:46:30.015Z,11.5
2023-01-19T03:47:30.019Z,12
2023-01-19T03:48:30.059Z,12.1429
2023-01-19T03:49:30.100Z,12.7143
2023-01-19T03:50:30.151Z,12.6429
2023-01-19T03:51:30.210Z,13.1429
2023-01-19T03:52:30.212Z,12.7143
2023-01-19T03:53:30.232Z,12.7143
2023-01-19T03:54:30.263Z,13.3571
2023-01-19T03:55:30.290Z,12.8571
2023-01-19T03:56:30.325Z,13.2143
2023-01-19T03:57:30.361Z,12.8571
2023-01-19T03:58:30.401Z,12.9286
2023-01-19T03:59:30.427Z,12.7143
2023-01-19T04:00:30.465Z,13.4286
2023-01-19T04:01:30.617Z,12.7143
2023-01-19T04:02:30.602Z,12.6429
2023-01-19T04:03:30.581Z,13.2143
2023-01-19T04:04:30.623Z,13.4286
2023-01-19T04:05:30.656Z,13.2143
2023-01-19T04:06:30.699Z,14.6429
2023-01-19T04:07:30.729Z,13.2143
2023-01-19T04:08:30.768Z,13.9286
2023-01-19T04:09:30.804Z,13
2023-01-19T04:10:30.846Z,14.6429
2023-01-19T04:11:30.872Z,14
2023-01-19T04:12:30.909Z,13.1429
2023-01-19T04:13:30.940Z,13.7143
2023-01-19T04:14:30.997Z,14.3571
2023-01-19T04:15:31.012Z,13.7143
2023-01-19T04:16:31.048Z,14.2143
2023-01-19T04:17:31.077Z,13.3571
2023-01-19T04:18:33.648Z,14.1429
2023-01-19T04:19:31.161Z,14.3571
2023-01-19T04:20:31.189Z,14
2023-01-19T04:21:31.220Z,14.3571
2023-01-19T04:22:31.269Z,13.2143
2023-01-19T04:23:31.294Z,14
2023-01-19T04:24:31.337Z,14.5
2023-01-19T04:25:31.372Z,13.8571
2023-01-19T04:26:31.407Z,14
2023-01-19T04:27:31.442Z,13.9286
2023-01-19T04:28:31.484Z,13.7143
2023-01-19T04:29:31.541Z,14.5
2023-01-19T04:30:31.570Z,14.3571
2023-01-19T04:31:31.697Z,14.1429
2023-01-19T04:32:31.629Z,14.6429
2023-01-19T04:33:31.663Z,14.4286
2023-01-19T04:34:31.719Z,15.8571
2023-01-19T04:35:31.737Z,15.6429
2023-01-19T04:36:31.766Z,15.4286
2023-01-19T04:37:31.812Z,14.5
2023-01-19T04:38:31.845Z,14.6429
2023-01-19T04:39:31.876Z,15.9286
2023-01-19T04:40:31.911Z,15.3571
2023-01-19T04:41:31.939Z,15.7143
2023-01-19T04:42:31.977Z,15.4286
2023-01-19T04:43:32.018Z,16
2023-01-19T04:44:32.039Z,15.4286
2023-01-19T04:45:32.066Z,15.9286
2023-01-19T04:46:32.164Z,15.8571
2023-01-19T04:47:32.146Z,16.4286
2023-01-19T04:48:32.172Z,17.1429
2023-01-19T04:49:32.211Z,16.5
2023-01-19T04:50:32.236Z,16.6429
2023-01-19T04:51:32.282Z,15.9286
2023-01-19T04:52:32.306Z,16.1429
2023-01-19T04:53:32.343Z,16.1429
2023-01-19T04:54:32.437Z,16
2023-01-19T04:55:32.398Z,15.2143
2023-01-19T04:56:32.429Z,15.3571
2023-01-19T04:57:32.483Z,16.2143
2023-01-19T04:58:32.503Z,15.7143
2023-01-19T04:59:32.552Z,16.5
2023-01-19T05:00:32.581Z,16.1429
2023-01-19T05:01:32.719Z,15.8571
2023-01-19T05:02:32.695Z,16.4286
2023-01-19T05:03:32.671Z,15.4286
2023-01-19T05:04:32.710Z,16.1429
2023-01-19T05:05:32.737Z,17.2143
2023-01-19T05:06:32.774Z,17
2023-01-19T05:07:32.808Z,17.1429
2023-01-19T05:08:32.832Z,17.2143
2023-01-19T05:09:32.869Z,15.8571
2023-01-19T05:10:32.903Z,16.3571
2023-01-19T05:11:32.949Z,16
2023-01-19T05:12:32.983Z,16.5
2023-01-19T05:13:33.014Z,15.8571
2023-01-19T05:14:33.049Z,16.6429
2023-01-19T05:15:33.083Z,16.9286
2023-01-19T05:16:33.116Z,16.7143
2023-01-19T05:17:33.159Z,16.7143
2023-01-19T05:18:33.200Z,16.8571
2023-01-19T05:19:33.239Z,16.8571
2023-01-19T05:20:33.296Z,16.1429
2023-01-19T05:21:33.300Z,15.5
2023-01-19T05:22:33.341Z,16.8571
2023-01-19T05:23:33.377Z,16.1429
2023-01-19T05:24:33.431Z,15.9286
2023-01-19T05:25:33.434Z,16.5
2023-01-19T05:26:33.483Z,16.4286
2023-01-19T05:27:33.516Z,16.5
2023-01-19T05:28:33.606Z,15.8571
2023-01-19T05:29:33.593Z,15.7143
2023-01-19T05:30:33.744Z,16.3571
2023-01-19T05:31:33.790Z,15
2023-01-19T05:32:33.696Z,16.3571
2023-01-19T05:33:33.729Z,16.1429
2023-01-19T05:34:33.774Z,16.4286
2023-01-19T05:35:36.121Z,15.8571
2023-01-19T05:36:33.837Z,16.1429
2023-01-19T05:37:33.886Z,15.7143
2023-01-19T05:38:35.979Z,15.5
2023-01-19T05:39:33.962Z,15.8571
2023-01-19T05:40:33.983Z,16.5
2023-01-19T05:41:34.029Z,15.9286
2023-01-19T05:42:34.056Z,16
2023-01-19T05:43:34.097Z,16.6429
2023-01-19T05:44:34.148Z,15.6429
2023-01-19T05:45:34.199Z,16.1429
2023-01-19T05:46:34.240Z,16.5
2023-01-19T05:47:34.235Z,15.8571
2023-01-19T05:48:34.263Z,16
2023-01-19T05:49:34.295Z,16.2143
2023-01-19T05:50:34.336Z,16.3571
2023-01-19T05:51:34.381Z,16.7143
2023-01-19T05:52:34.416Z,16.6429
2023-01-19T05:53:34.435Z,16.6429
2023-01-19T05:54:34.477Z,15.7143
2023-01-19T05:55:34.513Z,16.5
2023-01-19T05:56:34.548Z,16.7143
2023-01-19T05:57:34.576Z,15.7143
2023-01-19T05:58:34.626Z,16.1429
2023-01-19T05:59:34.658Z,15.9286
2023-01-19T06:00:34.687Z,16.2143
2023-01-19T06:01:34.811Z,15
2023-01-19T06:02:34.758Z,15.4286
2023-01-19T06:03:34.827Z,15.7143
2023-01-19T06:04:34.823Z,15.7143
2023-01-19T06:05:34.860Z,16.4286
2023-01-19T06:06:34.919Z,16.3571
2023-01-19T06:07:34.936Z,16
2023-01-19T06:08:34.977Z,16
2023-01-19T06:09:35.020Z,16.2143
2023-01-19T06:10:35.037Z,16.1429
2023-01-19T06:11:35.075Z,14.9286
2023-01-19T06:12:35.117Z,15.6429
2023-01-19T06:13:35.154Z,16
2023-01-19T06:14:35.204Z,15.7143
2023-01-19T06:15:35.224Z,15.6429
2023-01-19T06:16:35.312Z,16.3571
2023-01-19T06:17:35.303Z,16.9286
2023-01-19T06:18:35.334Z,15.4286
2023-01-19T06:19:35.369Z,16.3571
2023-01-19T06:20:35.392Z,16.7143
2023-01-19T06:21:35.425Z,16
2023-01-19T06:22:35.460Z,16.5
2023-01-19T06:23:35.490Z,16.7143
2023-01-19T06:24:35.534Z,17.1429
2023-01-19T06:25:35.580Z,15.8571
2023-01-19T06:26:35.598Z,15.6429
2023-01-19T06:27:35.639Z,15.6429
2023-01-19T06:28:35.672Z,16.9286
2023-01-19T06:29:35.710Z,16.1429
2023-01-19T06:30:35.754Z,15.9286
2023-01-19T06:31:35.818Z,15.9286
2023-01-19T06:32:35.821Z,16
2023-01-19T06:33:35.861Z,14.6429
2023-01-19T06:34:35.906Z,15.9286
2023-01-19T06:35:35.933Z,15.8571
2023-01-19T06:36:35.961Z,15.6429
2023-01-19T06:37:35.991Z,15.5
2023-01-19T06:38:36.024Z,14.7143
2023-01-19T06:39:36.065Z,16.3571
2023-01-19T06:40:36.091Z,14.9286
2023-01-19T06:41:36.139Z,15.7143
2023-01-19T06:42:36.160Z,15.2143
2023-01-19T06:43:36.218Z,16.2143
2023-01-19T06:44:36.235Z,16
2023-01-19T06:45:36.351Z,16.2143
2023-01-19T06:46:36.308Z,15.9286
2023-01-19T06:47:36.349Z,15.4286
2023-01-19T06:48:36.380Z,15.5
2023-01-19T06:49:36.418Z,16.2143
2023-01-19T06:50:36.448Z,15.9286
2023-01-19T06:51:36.484Z,16
2023-01-19T06:52:36.519Z,16.6429
2023-01-19T06:53:36.561Z,16.2143
2023-01-19T06:54:36.602Z,16.9286
2023-01-19T06:55:36.644Z,16.1429
2023-01-19T06:56:36.683Z,15.4286
2023-01-19T06:57:36.716Z,15.5
2023-01-19T06:58:36.753Z,17
2023-01-19T06:59:36.788Z,15.8571
2023-01-19T07:00:36.832Z,15.3571
2023-01-19T07:01:37.028Z,15.7143
2023-01-19T07:02:37.088Z,15.7143
2023-01-19T07:03:36.951Z,15.5
2023-01-19T07:04:36.987Z,15.2143
2023-01-19T07:05:36.999Z,15.2143
2023-01-19T07:06:37.032Z,16
2023-01-19T07:07:37.067Z,15.3571
2023-01-19T07:08:37.097Z,15.9286
2023-01-19T07:09:37.135Z,15
2023-01-19T07:11:26.922Z,15.4286
2023-01-19T07:11:37.209Z,15.1429
2023-01-19T07:12:37.243Z,15.8571
2023-01-19T07:13:37.279Z,15.6429
2023-01-19T07:14:37.312Z,15.4286
2023-01-19T07:15:37.355Z,15.2143
2023-01-19T07:16:37.414Z,16
2023-01-19T07:17:37.423Z,15.8571
2023-01-19T07:18:37.470Z,14.8571
2023-01-19T07:19:37.500Z,15.2143
2023-01-19T07:20:37.539Z,14.9286
2023-01-19T07:21:37.576Z,14.7143
2023-01-19T07:22:37.607Z,15.3571
2023-01-19T07:23:37.638Z,14.9286
2023-01-19T07:24:37.690Z,15.2143
2023-01-19T07:25:37.717Z,14.8571
2023-01-19T07:26:37.758Z,15.2143
2023-01-19T07:27:37.780Z,16
2023-01-19T07:28:37.813Z,14.9286
2023-01-19T07:29:37.845Z,15.5
2023-01-19T07:30:37.960Z,15.3571
2023-01-19T07:31:37.974Z,14.5
2023-01-19T07:32:37.948Z,14.6429
2023-01-19T07:33:37.980Z,15
2023-01-19T07:34:38.022Z,15.2143
2023-01-19T07:35:38.045Z,15.8571
2023-01-19T07:36:38.082Z,14.4286
2023-01-19T07:37:38.127Z,15.4286
2023-01-19T07:38:38.162Z,14.9286
2023-01-19T07:39:38.186Z,14.7143
2023-01-19T07:40:38.208Z,14.6429
2023-01-19T07:41:38.238Z,14.2143
2023-01-19T07:42:38.294Z,14.3571
2023-01-19T07:43:38.341Z,14.6429
2023-01-19T07:44:38.347Z,15.1429
2023-01-19T07:45:38.392Z,14.8571
2023-01-19T07:46:38.419Z,14.3571
2023-01-19T07:47:38.458Z,14.6429
2023-01-19T07:48:38.492Z,14.3571
2023-01-19T07:49:38.544Z,14.3571
2023-01-19T07:50:38.575Z,14.9286
2023-01-19T07:51:38.598Z,15.2143
2023-01-19T07:52:38.635Z,14.2143
2023-01-19T07:53:38.678Z,14.4286
2023-01-19T07:54:38.707Z,14.8571
2023-01-19T07:55:38.728Z,14.7143
2023-01-19T07:56:38.759Z,14
2023-01-19T07:57:38.811Z,13.9286
2023-01-19T07:58:38.830Z,13.9286
2023-01-19T07:59:38.891Z,14.2143
2023-01-19T08:00:38.904Z,14.1429
2023-01-19T08:01:39.034Z,13.7143
2023-01-19T08:02:38.955Z,14.3571
2023-01-19T08:03:38.991Z,14
2023-01-19T08:04:39.144Z,14.7143
2023-01-19T08:05:39.057Z,14.1429
2023-01-19T08:06:39.098Z,14.2143
2023-01-19T08:07:39.146Z,13.5
2023-01-19T08:08:39.201Z,14.1429
2023-01-19T08:09:39.218Z,13.4286
2023-01-19T08:10:39.249Z,14.1429
2023-01-19T08:11:39.274Z,13.5
2023-01-19T08:12:39.318Z,13.3571
2023-01-19T08:13:39.353Z,13.6429
2023-01-19T08:14:39.404Z,13.8571
2023-01-19T08:15:39.466Z,12
2023-01-19T08:16:39.461Z,13.3571
2023-01-19T08:17:39.490Z,13.3571
2023-01-19T08:18:39.524Z,13.1429
2023-01-19T08:19:41.437Z,13.1429
2023-01-19T08:20:39.599Z,13.7143
2023-01-19T08:21:39.619Z,13.6429
2023-01-19T08:22:39.659Z,12.8571
2023-01-19T08:23:39.795Z,12.7143
2023-01-19T08:24:39.737Z,12.7143
2023-01-19T08:25:39.756Z,13.4286
2023-01-19T08:26:39.823Z,12.2143
2023-01-19T08:27:39.828Z,12.2143
2023-01-19T08:28:39.859Z,12.7143
2023-01-19T08:29:39.895Z,12.7143
2023-01-19T08:30:40.284Z,12.6429
2023-01-19T08:31:40.115Z,12.3571
2023-01-19T08:32:40.001Z,12
2023-01-19T08:33:40.040Z,12.7143
2023-01-19T08:34:40.075Z,12.3571
2023-01-19T08:35:40.119Z,12.1429
2023-01-19T08:36:40.356Z,11.9286
2023-01-19T08:37:40.183Z,11.8571
2023-01-19T08:38:40.225Z,11.4286
2023-01-19T08:39:40.257Z,11.8571
2023-01-19T08:40:40.331Z,11.2143
2023-01-19T08:41:40.343Z,12.2143
2023-01-19T08:42:40.367Z,10.9286
2023-01-19T08:43:40.419Z,11.4286
2023-01-19T08:44:49.738Z,11
2023-01-19T08:45:40.458Z,11.4286
2023-01-19T08:46:40.574Z,11.2143
2023-01-19T08:47:40.613Z,11.4286
2023-01-19T08:48:40.571Z,11.4286
2023-01-19T08:49:40.599Z,11.9286
2023-01-19T08:50:40.643Z,10.7143
2023-01-19T08:51:40.687Z,10.8571
2023-01-19T08:52:40.706Z,11.1429
2023-01-19T08:53:40.743Z,10.7143
2023-01-19T08:54:40.786Z,11.4286
2023-01-19T08:55:40.871Z,11.3571
2023-01-19T08:56:40.848Z,11.2143
2023-01-19T08:57:40.880Z,11.9286
2023-01-19T08:58:40.917Z,11.1429
2023-01-19T08:59:40.943Z,10.5
2023-01-19T09:00:41.000Z,11.7143
2023-01-19T09:01:41.128Z,10.9286
2023-01-19T09:02:41.061Z,11
2023-01-19T09:03:41.072Z,10.6429
2023-01-19T09:04:41.104Z,11
2023-01-19T09:05:41.143Z,10.6429
2023-01-19T09:06:41.165Z,11.5
2023-01-19T09:07:41.231Z,11.6429
2023-01-19T09:08:41.244Z,10.5
2023-01-19T09:09:41.294Z,11.5
2023-01-19T09:10:41.314Z,10.7143
2023-01-19T09:11:41.373Z,10.3571
2023-01-19T09:12:41.388Z,10.1429
2023-01-19T09:13:41.423Z,10.5
2023-01-19T09:14:41.496Z,10.3571
2023-01-19T09:15:41.554Z,10.4286
2023-01-19T09:16:41.537Z,10.1429
2023-01-19T09:17:41.565Z,10.8571
2023-01-19T09:18:41.598Z,10.2143
2023-01-19T09:19:41.630Z,10.4286
2023-01-19T09:20:41.669Z,10.4286
2023-01-19T09:21:41.710Z,9.92857
2023-01-19T09:22:41.756Z,9.71429
2023-01-19T09:23:41.776Z,10.3571
2023-01-19T09:24:41.829Z,10.9286
2023-01-19T09:25:41.847Z,10.6429
2023-01-19T09:26:41.883Z,9.92857
2023-01-19T09:27:41.919Z,10
2023-01-19T09:28:41.977Z,9.5
2023-01-19T09:29:41.987Z,9.64286
2023-01-19T09:30:42.105Z,9.92857
2023-01-19T09:31:42.083Z,10
2023-01-19T09:32:42.267Z,10.4286
2023-01-19T09:33:42.167Z,10.1429
2023-01-19T09:34:42.168Z,9.42857
2023-01-19T09:35:42.210Z,10
2023-01-19T09:36:42.237Z,10
2023-01-19T09:37:42.264Z,9.42857
2023-01-19T09:38:42.331Z,9.64286
2023-01-19T09:39:42.340Z,9.21429
2023-01-19T09:40:42.393Z,9.92857
2023-01-19T09:41:42.401Z,9.64286
2023-01-19T09:42:42.464Z,9.71429
2023-01-19T09:43:42.462Z,9.85714
2023-01-19T09:44:42.512Z,9.71429
2023-01-19T09:45:42.607Z,9.92857
2023-01-19T09:46:42.610Z,9.64286
2023-01-19T09:47:42.605Z,9.71429
2023-01-19T09:48:42.640Z,9.92857
2023-01-19T09:49:42.669Z,9.71429
2023-01-19T09:50:44.133Z,10.4286
2023-01-19T09:51:42.738Z,10.1429
2023-01-19T09:52:42.779Z,10.1429
2023-01-19T09:53:42.821Z,9.21429
2023-01-19T09:54:42.843Z,10.3571
2023-01-19T09:55:42.867Z,9.42857
2023-01-19T09:56:42.916Z,10.1429
2023-01-19T09:57:42.987Z,9.92857
2023-01-19T09:58:42.967Z,9.21429
2023-01-19T09:59:42.993Z,9.92857
2023-01-19T10:00:43.064Z,9.5
2023-01-19T10:01:43.141Z,9.92857
2023-01-19T10:02:43.189Z,9.35714
2023-01-19T10:03:43.138Z,9.71429
2023-01-19T10:04:43.167Z,9.85714
2023-01-19T10:05:43.201Z,10
2023-01-19T10:06:43.246Z,9.42857
2023-01-19T10:07:43.270Z,9.85714
2023-01-19T10:08:43.325Z,9.21429
2023-01-19T10:09:43.345Z,9.42857
2023-01-19T10:10:43.394Z,9.14286
2023-01-19T10:11:52.611Z,9.35714
2023-01-19T10:12:43.452Z,9.5
2023-01-19T10:13:43.497Z,10.1429
2023-01-19T10:14:43.529Z,10
2023-01-19T10:15:43.564Z,9.64286
2023-01-19T10:16:43.598Z,9.92857
2023-01-19T10:17:43.642Z,10.2143
2023-01-19T10:18:43.684Z,10.4286
2023-01-19T10:19:45.677Z,9.71429
2023-01-19T10:20:43.762Z,10.4286
2023-01-19T10:21:43.779Z,9.64286
2023-01-19T10:22:43.848Z,10.4286
2023-01-19T10:23:43.844Z,9.92857
2023-01-19T10:24:43.881Z,9.71429
2023-01-19T10:25:43.981Z,10.4286
2023-01-19T10:26:43.979Z,10
2023-01-19T10:27:44.019Z,9.64286
2023-01-19T10:28:44.020Z,10.6429
2023-01-19T10:29:44.062Z,9.71429
2023-01-19T10:30:44.122Z,9.42857
2023-01-19T10:31:44.168Z,10.1429
2023-01-19T10:32:44.157Z,9
2023-01-19T10:33:44.207Z,9.21429
2023-01-19T10:34:44.284Z,9.21429
2023-01-19T10:35:44.256Z,9.85714
2023-01-19T10:36:44.285Z,9.92857
2023-01-19T10:37:44.325Z,9.92857
2023-01-19T10:38:44.364Z,10.4286
2023-01-19T10:39:44.401Z,9.71429
2023-01-19T10:40:44.489Z,10.5
2023-01-19T10:41:44.576Z,10
2023-01-19T10:42:44.507Z,10.1429
2023-01-19T10:43:44.603Z,10
2023-01-19T10:44:44.614Z,9.5
2023-01-19T10:45:44.725Z,9.64286
2023-01-19T10:46:44.676Z,9.71429
2023-01-19T10:47:44.729Z,10
2023-01-19T10:48:44.774Z,10.1429
2023-01-19T10:49:44.768Z,9.71429
2023-01-19T10:50:44.837Z,9.85714
2023-01-19T10:51:44.879Z,10.1429
2023-01-19T10:52:44.896Z,9.85714
2023-01-19T10:53:44.941Z,9.14286
2023-01-19T10:54:44.940Z,8.5
2023-01-19T10:55:45.015Z,9.14286
2023-01-19T10:56:45.008Z,9.21429
2023-01-19T10:57:45.044Z,9.42857
2023-01-19T10:58:45.084Z,9.71429
2023-01-19T10:59:45.144Z,9.21429
2023-01-19T11:00:45.166Z,9.5
2023-01-19T11:01:45.402Z,9.14286
2023-01-19T11:02:45.347Z,9.5
2023-01-19T11:03:45.330Z,9.92857
2023-01-19T11:04:45.287Z,9.64286
2023-01-19T11:05:45.317Z,10.3571
2023-01-19T11:06:45.352Z,9.85714
2023-01-19T11:07:45.391Z,9.71429
2023-01-19T11:08:45.446Z,9.35714
2023-01-19T11:09:45.452Z,9.5
2023-01-19T11:10:46.122Z,9.14286
2023-01-19T11:11:45.547Z,9.42857
2023-01-19T11:12:45.566Z,8.92857
2023-01-19T11:13:45.626Z,9
2023-01-19T11:14:45.636Z,10.3571
2023-01-19T11:15:45.663Z,8.92857
2023-01-19T11:16:45.750Z,10
2023-01-19T11:17:45.727Z,9.64286
2023-01-19T11:18:45.760Z,9.35714
2023-01-19T11:19:45.795Z,9.42857
2023-01-19T11:20:45.836Z,9.64286
2023-01-19T11:21:45.857Z,9.42857
2023-01-19T11:22:48.064Z,9.42857
2023-01-19T11:23:45.927Z,10.1429
2023-01-19T11:24:45.959Z,9.71429
2023-01-19T11:25:45.991Z,9.35714
2023-01-19T11:26:46.019Z,9.21429
2023-01-19T11:27:46.067Z,9.21429
2023-01-19T11:28:46.096Z,9.92857
2023-01-19T11:29:46.138Z,9.64286
2023-01-19T11:30:46.188Z,10
2023-01-19T11:31:46.298Z,9.35714
2023-01-19T11:32:46.252Z,9.85714
2023-01-19T11:33:46.272Z,9.71429
2023-01-19T11:34:46.314Z,9.14286
2023-01-19T11:35:46.346Z,9.85714
2023-01-19T11:36:46.376Z,9.42857
2023-01-19T11:37:46.413Z,10.4286
2023-01-19T11:38:46.462Z,9.64286
2023-01-19T11:39:46.500Z,9.35714
2023-01-19T11:40:46.534Z,9.71429
2023-01-19T11:41:46.574Z,9.85714
2023-01-19T11:42:46.640Z,9.14286
2023-01-19T11:43:49.274Z,9.64286
2023-01-19T11:44:46.690Z,9.21429
2023-01-19T11:45:46.806Z,9.85714
2023-01-19T11:46:49.200Z,9.21429
2023-01-19T11:47:46.787Z,8.71429
2023-01-19T11:48:46.828Z,10.2143
2023-01-19T11:49:46.853Z,8.92857
2023-01-19T11:50:46.880Z,8.42857
2023-01-19T11:51:46.919Z,8.92857
2023-01-19T11:52:46.956Z,9.42857
2023-01-19T11:53:46.994Z,9.71429
2023-01-19T11:54:47.026Z,9.92857
2023-01-19T11:55:47.067Z,9.42857
2023-01-19T11:56:47.089Z,9
2023-01-19T11:57:47.113Z,9.14286
2023-01-19T11:58:47.157Z,10
2023-01-19T11:59:47.198Z,9.71429
2023-01-19T12:00:47.236Z,9.35714
2023-01-19T12:01:47.273Z,10.3571
2023-01-19T12:02:47.301Z,9.42857
2023-01-19T12:03:47.404Z,9.85714
2023-01-19T12:04:47.398Z,10
2023-01-19T12:05:48.367Z,9.64286
2023-01-19T12:06:47.449Z,9.35714
2023-01-19T12:07:47.487Z,9.64286
2023-01-19T12:08:47.519Z,9.5
2023-01-19T12:09:47.569Z,10.1429
2023-01-19T12:10:47.591Z,8.92857
2023-01-19T12:11:47.634Z,8.92857
2023-01-19T12:12:47.660Z,8.71429
2023-01-19T12:13:47.690Z,8.5
2023-01-19T12:14:47.729Z,8.92857
2023-01-19T12:15:47.763Z,9
2023-01-19T12:16:47.823Z,9.21429
2023-01-19T12:17:47.832Z,8.71429
2023-01-19T12:18:47.876Z,9
2023-01-19T12:19:47.893Z,8.71429
2023-01-19T12:20:47.974Z,8.64286
2023-01-19T12:21:47.991Z,9
2023-01-19T12:22:48.016Z,8.21429
2023-01-19T12:23:48.046Z,8.5